Time;durP1;ratioP1;P1;durP2;ratioP2;P2;SDS_P1;SDS_P2;PMS_P1;PMS_P2;Temp;Humidity;BMP_temperature;BMP_pressure;BME280_temperature;BME280_humidity;BME280_pressure;Samples;Min_cycle;Max_cycle;Signal;HPM_P1;HPM_P2
2023/09/11 00:00:46;;;;;;;24.05;15.40;;;;;;;20.60;100.00;101238.25;6248867;23;20004;-78
2023/09/11 00:03:12;;;;;;;29.25;16.55;;;;;;;20.58;100.00;101228.53;6247014;23;20004;-78
2023/09/11 00:05:37;;;;;;;28.55;15.85;;;;;;;20.56;100.00;101228.69;6225980;23;20000;-78
2023/09/11 00:08:02;;;;;;;25.48;14.93;;;;;;;20.55;100.00;101229.72;6226826;23;20314;-78
2023/09/11 00:10:28;;;;;;;24.33;16.02;;;;;;;20.53;100.00;101220.84;6253154;23;20004;-78
2023/09/11 00:12:53;;;;;;;25.63;15.02;;;;;;;20.53;100.00;101222.72;6253749;23;20023;-78
2023/09/11 00:15:19;;;;;;;25.33;17.10;;;;;;;20.52;100.00;101218.28;6254018;23;20517;-78
2023/09/11 00:17:44;;;;;;;25.25;16.80;;;;;;;20.50;100.00;101223.91;6227050;23;20004;-78
2023/09/11 00:20:10;;;;;;;26.73;15.10;;;;;;;20.48;100.00;101220.47;6227026;23;20000;-78
2023/09/11 00:22:36;;;;;;;26.60;16.08;;;;;;;20.47;100.00;101216.06;6253084;23;20000;-78
2023/09/11 00:25:02;;;;;;;25.67;16.42;;;;;;;20.50;100.00;101218.44;6253180;22;20342;-78
2023/09/11 00:27:28;;;;;;;26.73;16.50;;;;;;;20.48;100.00;101212.28;6226680;23;20030;-78
2023/09/11 00:29:53;;;;;;;26.05;15.90;;;;;;;20.47;100.00;101209.72;6240220;23;20022;-78
2023/09/11 00:32:18;;;;;;;26.50;16.88;;;;;;;20.44;100.00;101216.41;6242413;23;20062;-78
2023/09/11 00:34:44;;;;;;;26.48;16.10;;;;;;;20.42;100.00;101211.13;6242672;23;20004;-78
2023/09/11 00:37:09;;;;;;;26.10;16.88;;;;;;;20.40;100.00;101206.84;6241063;23;20000;-78
2023/09/11 00:39:35;;;;;;;29.88;17.48;;;;;;;20.38;100.00;101212.47;6242648;23;20058;-78
2023/09/11 00:42:00;;;;;;;25.10;16.73;;;;;;;20.34;100.00;101207.53;6242023;23;20075;-78
2023/09/11 00:44:25;;;;;;;26.90;16.88;;;;;;;20.32;100.00;101207.66;6214350;23;20079;-78
2023/09/11 00:46:51;;;;;;;28.00;16.40;;;;;;;20.29;100.00;101210.72;6241639;23;20047;-78
2023/09/11 00:49:19;;;;;;;26.33;17.00;;;;;;;20.28;100.00;101206.31;6242767;23;20000;-78
2023/09/11 00:51:45;;;;;;;31.80;17.50;;;;;;;20.25;100.00;101202.03;6215380;23;20142;-78
2023/09/11 00:54:11;;;;;;;28.63;17.08;;;;;;;20.23;100.00;101195.88;6215220;23;20024;-78
2023/09/11 00:56:36;;;;;;;26.80;16.38;;;;;;;20.21;100.00;101206.13;6242531;23;20004;-78
2023/09/11 00:59:03;;;;;;;25.17;15.98;;;;;;;20.19;100.00;101207.28;6215425;23;20004;-78
2023/09/11 01:01:29;;;;;;;28.80;16.77;;;;;;;20.17;100.00;101207.47;6209031;23;20233;-78
2023/09/11 01:03:54;;;;;;;24.75;16.52;;;;;;;20.15;100.00;101200.47;6238200;23;20414;-78
2023/09/11 01:06:21;;;;;;;30.92;17.77;;;;;;;20.12;100.00;101198.94;6240905;23;20333;-78
2023/09/11 01:08:46;;;;;;;26.02;17.67;;;;;;;20.10;100.00;101198.22;6240341;23;20015;-78
2023/09/11 01:11:12;;;;;;;32.85;18.60;;;;;;;20.07;100.00;101195.84;6241553;23;20003;-78
2023/09/11 01:13:37;;;;;;;25.08;16.48;;;;;;;20.05;100.00;101198.72;6241947;23;20436;-78
2023/09/11 01:16:32;;;;;;;29.25;17.17;;;;;;;20.05;100.00;101192.44;6214396;23;20000;-78
2023/09/11 01:19:09;;;;;;;27.20;16.25;;;;;;;20.02;100.00;101203.69;6214596;23;20509;-79
2023/09/11 01:22:06;;;;;;;26.15;17.13;;;;;;;20.01;100.00;101196.50;6214383;23;20397;-78
2023/09/11 01:24:47;;;;;;;26.38;17.65;;;;;;;19.99;100.00;101201.28;6214351;23;20008;-78
2023/09/11 01:27:40;;;;;;;26.92;17.60;;;;;;;19.97;100.00;101197.84;6241166;23;20004;-78
2023/09/11 01:30:07;;;;;;;27.55;16.67;;;;;;;19.96;100.00;101197.00;6240928;23;20008;-79
2023/09/11 01:32:33;;;;;;;25.58;16.08;;;;;;;19.96;100.00;101199.75;6241386;23;19999;-78
2023/09/11 01:34:59;;;;;;;25.13;15.25;;;;;;;19.95;100.00;101199.91;6241867;23;20034;-78
2023/09/11 01:37:24;;;;;;;25.30;16.00;;;;;;;19.93;100.00;101186.44;6241707;23;20445;-79
2023/09/11 01:39:50;;;;;;;27.33;16.17;;;;;;;19.93;100.00;101188.28;6269430;22;19988;-78
2023/09/11 01:42:26;;;;;;;25.98;15.85;;;;;;;19.89;100.00;101187.78;6272231;22;19999;-78
2023/09/11 01:44:52;;;;;;;25.33;15.45;;;;;;;19.88;100.00;101186.94;6271868;22;19995;-77
2023/09/11 01:47:21;;;;;;;25.35;16.67;;;;;;;19.85;100.00;101186.41;6245806;22;20062;-77
2023/09/11 01:49:48;;;;;;;26.65;15.60;;;;;;;19.82;100.00;101187.56;6272256;22;19999;-77
2023/09/11 01:52:15;;;;;;;25.83;16.33;;;;;;;19.79;100.00;101179.72;6246112;23;19996;-77
2023/09/11 01:54:41;;;;;;;26.35;15.63;;;;;;;19.77;100.00;101186.34;6245986;23;20022;-78
2023/09/11 01:57:07;;;;;;;27.00;16.02;;;;;;;19.73;100.00;101189.38;6245470;22;20070;-77
2023/09/11 01:59:32;;;;;;;28.52;15.35;;;;;;;19.70;100.00;101183.41;6271925;22;19992;-77
2023/09/11 02:01:58;;;;;;;25.90;16.20;;;;;;;19.70;100.00;101180.69;6266897;22;19996;-78
2023/09/11 02:04:23;;;;;;;26.00;15.15;;;;;;;19.67;100.00;101181.03;6242483;22;20007;-78
2023/09/11 02:06:49;;;;;;;30.77;16.27;;;;;;;19.66;100.00;101173.84;6245503;23;20008;-77
2023/09/11 02:09:14;;;;;;;27.63;15.02;;;;;;;19.64;100.00;101181.34;6245725;22;19988;-78
2023/09/11 02:11:40;;;;;;;25.88;15.45;;;;;;;19.62;100.00;101172.47;6245705;22;20011;-77
2023/09/11 02:14:05;;;;;;;24.58;14.95;;;;;;;19.57;100.00;101172.97;6245912;22;20046;-78
2023/09/11 02:16:30;;;;;;;25.70;15.15;;;;;;;19.55;100.00;101178.59;6245981;22;19998;-77
2023/09/11 02:18:55;;;;;;;24.83;14.23;;;;;;;19.53;100.00;101163.41;6270891;22;20003;-77
2023/09/11 02:21:21;;;;;;;27.85;14.57;;;;;;;19.51;100.00;101160.84;6245750;23;20003;-77
2023/09/11 02:23:46;;;;;;;24.52;14.70;;;;;;;19.50;100.00;101169.19;6271527;22;20051;-77
2023/09/11 02:26:12;;;;;;;26.23;15.25;;;;;;;19.49;100.00;101167.50;6271776;22;20031;-78
2023/09/11 02:28:37;;;;;;;27.35;14.90;;;;;;;19.47;100.00;101164.06;6273049;22;20022;-77
2023/09/11 02:31:03;;;;;;;25.33;15.10;;;;;;;19.43;100.00;101155.38;6274222;22;19996;-77
2023/09/11 02:33:28;;;;;;;23.67;14.38;;;;;;;19.41;100.00;101162.84;6247814;23;20011;-78
2023/09/11 02:35:54;;;;;;;24.05;14.45;;;;;;;19.39;100.00;101159.44;6273910;22;20027;-77
2023/09/11 02:38:20;;;;;;;25.77;14.65;;;;;;;19.37;100.00;101158.72;6247813;23;19992;-78
2023/09/11 02:40:46;;;;;;;26.13;15.10;;;;;;;19.35;100.00;101158.88;6274027;22;20004;-77
2023/09/11 02:43:11;;;;;;;24.20;15.02;;;;;;;19.34;100.00;101159.06;6273736;22;19988;-77
2023/09/11 02:45:37;;;;;;;25.70;14.05;;;;;;;19.31;100.00;101159.38;6273737;22;20015;-77
2023/09/11 02:48:02;;;;;;;26.25;16.50;;;;;;;19.27;100.00;101161.59;6271793;22;20007;-78
2023/09/11 02:50:27;;;;;;;28.33;16.23;;;;;;;19.24;100.00;101161.91;6251284;23;20015;-78
2023/09/11 02:52:53;;;;;;;26.83;16.45;;;;;;;19.23;100.00;101162.09;6225578;23;20010;-78
2023/09/11 02:55:18;;;;;;;25.33;15.60;;;;;;;19.19;100.00;101156.94;6224444;23;20004;-78
2023/09/11 02:57:43;;;;;;;25.30;14.88;;;;;;;19.17;100.00;101156.25;6252418;23;20000;-78
2023/09/11 03:00:09;;;;;;;26.45;16.75;;;;;;;19.15;100.00;101152.84;6251881;23;20008;-78
2023/09/11 03:02:34;;;;;;;26.67;14.88;;;;;;;19.12;100.00;101150.44;6244004;23;20315;-78
2023/09/11 03:05:00;;;;;;;27.55;15.13;;;;;;;19.11;100.00;101148.72;6223668;23;20000;-78
2023/09/11 03:07:25;;;;;;;28.52;16.42;;;;;;;19.09;100.00;101147.16;6249861;23;20003;-78
2023/09/11 03:09:50;;;;;;;26.90;14.90;;;;;;;19.06;100.00;101151.06;6222579;23;20047;-78
2023/09/11 03:12:16;;;;;;;24.88;15.55;;;;;;;19.06;100.00;101144.78;6251065;23;20004;-78
2023/09/11 03:14:41;;;;;;;26.38;15.55;;;;;;;19.03;100.00;101143.22;6250327;23;20429;-78
2023/09/11 03:17:07;;;;;;;26.48;15.20;;;;;;;19.02;100.00;101136.09;6224269;23;20011;-78
2023/09/11 03:19:33;;;;;;;29.77;15.02;;;;;;;19.01;100.00;101137.09;6224169;23;20004;-78
2023/09/11 03:21:59;;;;;;;27.30;14.27;;;;;;;19.01;100.00;101132.47;6224129;23;20060;-78
2023/09/11 03:24:24;;;;;;;32.00;14.93;;;;;;;18.99;100.00;101125.47;6249904;22;20027;-78
2023/09/11 03:26:50;;;;;;;27.10;14.63;;;;;;;18.98;100.00;101129.25;6252514;23;20016;-78
2023/09/11 03:29:15;;;;;;;24.52;14.63;;;;;;;18.97;100.00;101119.34;6224510;23;20031;-78
2023/09/11 03:31:41;;;;;;;23.33;13.75;;;;;;;18.95;100.00;101122.25;6226496;23;20056;-78
2023/09/11 03:34:06;;;;;;;26.08;14.45;;;;;;;18.94;100.00;101114.22;6252078;23;20003;-78
2023/09/11 03:36:31;;;;;;;26.20;15.60;;;;;;;18.93;100.00;101120.69;6252020;23;19996;-78
2023/09/11 03:38:56;;;;;;;23.65;14.15;;;;;;;18.93;100.00;101120.69;6251889;23;20011;-78
2023/09/11 03:41:22;;;;;;;26.20;14.82;;;;;;;18.92;100.00;101119.84;6252294;23;20307;-78
2023/09/11 03:43:47;;;;;;;25.70;14.65;;;;;;;18.91;100.00;101123.56;6225265;23;20012;-78
2023/09/11 03:46:14;;;;;;;28.80;15.70;;;;;;;18.93;100.00;101123.41;6224549;23;20438;-78
2023/09/11 03:48:40;;;;;;;25.90;16.00;;;;;;;18.92;100.00;101121.69;6223475;23;20429;-78
2023/09/11 03:51:06;;;;;;;27.77;14.90;;;;;;;18.92;100.00;101117.13;6224253;23;20061;-78
2023/09/11 03:53:31;;;;;;;27.92;15.15;;;;;;;18.92;100.00;101117.13;6250399;23;20091;-78
2023/09/11 03:55:56;;;;;;;25.85;15.13;;;;;;;18.93;100.00;101112.50;6223566;23;20016;-78
2023/09/11 03:58:22;;;;;;;25.17;15.60;;;;;;;18.92;100.00;101110.78;6223166;23;20039;-78
2023/09/11 04:00:47;;;;;;;28.52;16.02;;;;;;;18.92;100.00;101099.91;6240414;23;20079;-78
2023/09/11 04:03:12;;;;;;;30.08;15.75;;;;;;;18.92;100.00;101099.91;6235335;23;20028;-78
2023/09/11 04:05:38;;;;;;;25.92;15.05;;;;;;;18.92;100.00;101094.44;6242905;23;19996;-78
2023/09/11 04:08:03;;;;;;;25.17;14.50;;;;;;;18.91;100.00;101090.03;6242475;23;20008;-78
2023/09/11 04:10:29;;;;;;;25.10;14.82;;;;;;;18.92;100.00;101086.28;6242329;23;20014;-78
2023/09/11 04:12:54;;;;;;;27.83;15.43;;;;;;;18.91;100.00;101084.59;6242543;23;20477;-78
2023/09/11 04:15:20;;;;;;;26.27;15.00;;;;;;;18.91;100.00;101090.88;6216257;23;20027;-78
2023/09/11 04:17:45;;;;;;;27.60;14.93;;;;;;;18.89;100.00;101083.88;6243105;23;20429;-79
2023/09/11 04:20:11;;;;;;;25.70;15.30;;;;;;;18.89;100.00;101086.59;6242318;23;20038;-78
2023/09/11 04:22:36;;;;;;;27.05;15.25;;;;;;;18.88;100.00;101087.66;6216054;23;20455;-78
2023/09/11 04:25:01;;;;;;;29.02;16.25;;;;;;;18.85;100.00;101084.19;6241866;23;20008;-78
2023/09/11 04:27:27;;;;;;;24.70;15.10;;;;;;;18.84;100.00;101071.59;6215330;23;20004;-78
2023/09/11 04:29:52;;;;;;;24.27;14.23;;;;;;;18.84;100.00;101068.00;6215719;23;20022;-78
2023/09/11 04:32:18;;;;;;;24.70;14.38;;;;;;;18.83;100.00;101078.06;6216164;23;20477;-78
2023/09/11 04:34:43;;;;;;;23.38;14.75;;;;;;;18.83;100.00;101069.88;6242556;23;20480;-78
2023/09/11 04:37:09;;;;;;;29.55;15.13;;;;;;;18.82;100.00;101068.16;6215113;23;20008;-78
2023/09/11 04:39:34;;;;;;;27.50;14.63;;;;;;;18.82;100.00;101079.06;6215238;23;20008;-78
2023/09/11 04:41:59;;;;;;;28.20;14.95;;;;;;;18.82;100.00;101080.94;6215146;23;20054;-78
2023/09/11 04:44:25;;;;;;;25.98;14.90;;;;;;;18.82;100.00;101078.22;6242301;23;20334;-78
2023/09/11 04:46:50;;;;;;;25.08;14.10;;;;;;;18.82;100.00;101087.22;6242681;23;20475;-78
2023/09/11 04:49:15;;;;;;;30.60;14.88;;;;;;;18.82;100.00;101084.50;6215196;22;20014;-78
2023/09/11 04:51:41;;;;;;;27.60;14.23;;;;;;;18.83;100.00;101088.94;6241926;23;20022;-78
2023/09/11 04:54:06;;;;;;;24.40;13.38;;;;;;;18.81;100.00;101099.13;6242567;23;20067;-78
2023/09/11 04:56:32;;;;;;;25.13;14.10;;;;;;;18.80;100.00;101089.28;6242404;23;20004;-78
2023/09/11 04:58:57;;;;;;;26.92;13.93;;;;;;;18.78;100.00;101090.44;6215277;23;20039;-78
2023/09/11 05:01:22;;;;;;;23.55;13.55;;;;;;;18.75;100.00;101091.59;6211181;23;20014;-78
2023/09/11 05:03:47;;;;;;;24.48;14.30;;;;;;;18.73;100.00;101084.59;6208845;23;20510;-78
2023/09/11 05:06:13;;;;;;;27.48;13.23;;;;;;;18.72;100.00;101088.38;6215175;23;20330;-78
2023/09/11 05:08:38;;;;;;;23.98;13.77;;;;;;;18.69;100.00;101089.53;6216969;23;20012;-78
2023/09/11 05:11:03;;;;;;;26.70;14.93;;;;;;;18.66;100.00;101093.41;6248495;23;20009;-78
2023/09/11 05:13:29;;;;;;;27.63;14.50;;;;;;;18.67;100.00;101097.00;6223001;23;20010;-78
2023/09/11 05:15:54;;;;;;;26.20;14.73;;;;;;;18.65;100.00;101099.03;6248415;23;19996;-78
2023/09/11 05:18:19;;;;;;;29.52;14.75;;;;;;;18.63;100.00;101096.47;6249229;23;20008;-78
2023/09/11 05:20:46;;;;;;;24.42;14.63;;;;;;;18.64;100.00;101086.44;6222939;23;20035;-78
2023/09/11 05:23:11;;;;;;;23.80;13.48;;;;;;;18.65;100.00;101097.19;6221490;22;20004;-77
2023/09/11 05:25:37;;;;;;;25.77;13.70;;;;;;;18.67;100.00;101102.47;6223293;23;20015;-78
2023/09/11 05:28:02;;;;;;;28.52;15.48;;;;;;;18.67;100.00;101095.13;6248456;23;20099;-78
2023/09/11 05:30:28;;;;;;;22.88;12.85;;;;;;;18.69;100.00;101097.69;6220826;23;20040;-78
2023/09/11 05:32:53;;;;;;;26.40;14.32;;;;;;;18.71;100.00;101103.81;6248841;23;20004;-78
2023/09/11 05:35:20;;;;;;;29.20;14.40;;;;;;;18.72;100.00;101108.25;6251516;23;20008;-78
2023/09/11 05:37:45;;;;;;;25.17;13.57;;;;;;;18.72;100.00;101104.69;6261015;23;20011;-77
2023/09/11 05:40:11;;;;;;;23.55;12.95;;;;;;;18.73;100.00;101107.25;6228892;23;19996;-77
2023/09/11 05:42:36;;;;;;;23.52;12.77;;;;;;;18.75;100.00;101109.81;6257859;23;20012;-78
2023/09/11 05:45:01;;;;;;;26.58;13.55;;;;;;;18.75;100.00;101105.22;6254652;23;20311;-77
2023/09/11 05:47:27;;;;;;;23.08;14.02;;;;;;;18.76;100.00;101112.38;6227086;23;20008;-77
2023/09/11 05:49:52;;;;;;;24.98;13.18;;;;;;;18.78;100.00;101112.22;6249561;23;20343;-77
2023/09/11 05:52:18;;;;;;;25.73;14.65;;;;;;;18.79;100.00;101111.22;6220091;23;20011;-77
2023/09/11 05:54:43;;;;;;;27.45;12.70;;;;;;;18.80;100.00;101113.78;6246615;23;20426;-77
2023/09/11 05:57:09;;;;;;;25.27;13.65;;;;;;;18.82;100.00;101119.91;6246310;23;20004;-77
2023/09/11 05:59:34;;;;;;;24.30;13.52;;;;;;;18.81;100.00;101115.47;6222347;23;20008;-77
2023/09/11 06:01:59;;;;;;;24.15;13.75;;;;;;;18.84;100.00;101133.34;6242550;23;20008;-77
2023/09/11 06:04:24;;;;;;;26.70;14.70;;;;;;;18.87;100.00;101124.91;6244458;23;20382;-76
2023/09/11 06:06:51;;;;;;;24.80;14.38;;;;;;;18.89;100.00;101127.47;6215934;23;20011;-75
2023/09/11 06:09:16;;;;;;;23.67;13.38;;;;;;;18.92;100.00;101127.13;6212789;23;20000;-75
2023/09/11 06:11:42;;;;;;;23.77;13.35;;;;;;;18.93;100.00;101124.28;6239873;23;20015;-75
2023/09/11 06:14:07;;;;;;;24.05;13.43;;;;;;;18.97;100.00;101130.25;6241141;23;20027;-74
2023/09/11 06:16:33;;;;;;;24.58;13.98;;;;;;;18.99;100.00;101129.06;6241201;23;20024;-74
2023/09/11 06:18:59;;;;;;;26.15;13.45;;;;;;;19.02;100.00;101127.91;6240945;23;20007;-75
2023/09/11 06:21:25;;;;;;;26.02;15.00;;;;;;;19.04;100.00;101134.03;6218271;23;20010;-76
2023/09/11 06:23:50;;;;;;;25.33;13.85;;;;;;;19.06;100.00;101131.16;6215618;23;20016;-76
2023/09/11 06:26:16;;;;;;;26.38;13.68;;;;;;;19.09;100.00;101128.94;6244303;23;20007;-75
2023/09/11 06:28:42;;;;;;;27.17;14.65;;;;;;;19.13;100.00;101135.78;6251555;23;20012;-76
2023/09/11 06:31:08;;;;;;;23.95;13.52;;;;;;;19.17;100.00;101133.59;6248743;23;20312;-80
2023/09/11 06:33:33;;;;;;;26.52;14.07;;;;;;;19.21;100.00;101143.16;6241714;23;20075;-79
2023/09/11 06:35:59;;;;;;;26.08;14.13;;;;;;;19.24;100.00;101148.28;6241458;23;20000;-80
2023/09/11 06:38:24;;;;;;;25.35;14.50;;;;;;;19.27;100.00;101141.63;6241710;23;20379;-77
2023/09/11 06:40:49;;;;;;;26.75;13.68;;;;;;;19.28;100.00;101143.34;6213650;23;20004;-79
2023/09/11 06:43:15;;;;;;;28.13;13.60;;;;;;;19.32;100.00;101144.75;6215113;23;20008;-79
2023/09/11 06:45:41;;;;;;;23.60;12.98;;;;;;;19.31;100.00;101138.44;6213502;23;20000;-80
2023/09/11 06:48:10;;;;;;;23.90;13.60;;;;;;;19.33;100.00;101138.28;6240646;23;20004;-80
2023/09/11 06:50:35;;;;;;;27.45;14.27;;;;;;;19.34;100.00;101139.97;6214570;23;20000;-80
2023/09/11 06:53:02;;;;;;;28.92;15.30;;;;;;;19.37;100.00;101142.38;6214686;23;20087;-80
2023/09/11 06:55:27;;;;;;;24.83;13.52;;;;;;;19.41;100.00;101148.38;6212670;23;20000;-80
2023/09/11 06:57:57;;;;;;;28.15;14.18;;;;;;;19.43;100.00;101146.31;6238029;23;20495;-80
2023/09/11 07:00:23;;;;;;;23.52;13.48;;;;;;;19.45;100.00;101150.59;6239734;23;20107;-81
2023/09/11 07:02:49;;;;;;;24.40;14.20;;;;;;;19.47;100.00;101143.09;6208051;23;20283;-80
2023/09/11 07:05:18;;;;;;;26.30;13.93;;;;;;;19.51;100.00;101139.03;6237361;23;20000;-79
2023/09/11 07:07:44;;;;;;;27.23;14.38;;;;;;;19.54;100.00;101133.25;6213390;23;20008;-80
2023/09/11 07:10:11;;;;;;;25.77;14.40;;;;;;;19.59;100.00;101138.22;6240647;23;20412;-80
2023/09/11 07:12:37;;;;;;;25.27;13.65;;;;;;;19.63;100.00;101130.56;6240413;23;20034;-81
2023/09/11 07:15:03;;;;;;;25.85;15.07;;;;;;;19.68;100.00;101133.66;6215396;23;20015;-80
2023/09/11 07:17:28;;;;;;;26.23;14.88;;;;;;;19.71;100.00;101120.53;6215905;23;20607;-80
2023/09/11 07:19:54;;;;;;;26.38;14.73;;;;;;;19.76;100.00;101125.47;6215419;23;20015;-80
2023/09/11 07:22:19;;;;;;;27.63;15.13;;;;;;;19.81;100.00;101128.63;6215471;23;20004;-79
2023/09/11 07:24:44;;;;;;;28.83;15.05;;;;;;;19.87;100.00;101130.66;6216846;23;20009;-79
2023/09/11 07:27:10;;;;;;;24.73;15.82;;;;;;;19.91;100.00;101125.72;6215568;23;20119;-80
2023/09/11 07:29:36;;;;;;;24.83;14.18;;;;;;;19.94;100.00;101128.09;6244305;23;20414;-81
2023/09/11 07:32:01;;;;;;;29.25;15.90;;;;;;;19.99;100.00;101136.66;6242672;23;20004;-80
2023/09/11 07:34:27;;;;;;;27.23;16.42;;;;;;;20.06;100.00;101134.13;6242931;23;20076;-78
2023/09/11 07:36:52;;;;;;;28.95;15.70;;;;;;;20.10;100.00;101135.47;6215379;23;20004;-80
2023/09/11 07:39:18;;;;;;;26.48;15.38;;;;;;;20.15;100.00;101138.56;6214732;23;20004;-78
2023/09/11 07:41:43;;;;;;;27.80;16.05;;;;;;;20.20;100.00;101143.50;6241441;23;20006;-80
2023/09/11 07:44:09;;;;;;;25.05;13.68;;;;;;;20.23;100.00;101140.44;6244387;23;20019;-80
2023/09/11 07:46:34;;;;;;;29.00;16.85;;;;;;;20.25;100.00;101141.16;6243642;23;20031;-79
2023/09/11 07:48:59;;;;;;;26.17;16.45;;;;;;;20.31;100.00;101147.78;6245994;23;20000;-81
2023/09/11 07:51:25;;;;;;;25.95;16.75;;;;;;;20.36;100.00;101148.13;6215952;23;20004;-81
2023/09/11 07:53:51;;;;;;;28.27;16.20;;;;;;;20.38;100.00;101146.94;6243559;23;20008;-81
2023/09/11 07:56:16;;;;;;;35.40;17.65;;;;;;;20.44;100.00;101145.41;6242779;23;20074;-81
2023/09/11 07:58:41;;;;;;;34.03;19.35;;;;;;;20.48;100.00;101165.88;6242834;23;20043;-80
2023/09/11 08:01:07;;;;;;;31.35;21.10;;;;;;;20.54;100.00;101164.34;6215788;23;20000;-81
2023/09/11 08:03:33;;;;;;;35.65;21.80;;;;;;;20.57;100.00;101164.88;6206901;23;20146;-81
2023/09/11 08:05:59;;;;;;;25.88;16.92;;;;;;;20.61;100.00;101162.63;6215680;23;20004;-80
2023/09/11 08:08:26;;;;;;;28.40;17.83;;;;;;;20.66;100.00;101162.13;6242970;23;20000;-81
2023/09/11 08:10:51;;;;;;;23.33;13.48;;;;;;;20.66;100.00;101168.50;6243041;23;20422;-81
2023/09/11 08:13:17;;;;;;;30.20;20.70;;;;;;;20.72;100.00;101169.69;6243084;23;20000;-80
2023/09/11 08:15:42;;;;;;;36.10;23.08;;;;;;;20.79;100.00;101170.69;6243055;23;20004;-81
2023/09/11 08:18:07;;;;;;;26.80;14.82;;;;;;;20.77;100.00;101180.94;6216255;23;20014;-81
2023/09/11 08:20:32;;;;;;;32.83;21.55;;;;;;;20.85;100.00;101174.59;6213700;23;20026;-80
2023/09/11 08:22:58;;;;;;;31.30;19.73;;;;;;;20.90;100.00;101172.22;6243241;23;20031;-79
2023/09/11 08:25:24;;;;;;;34.53;23.23;;;;;;;20.95;100.00;101167.94;6240648;23;20370;-81
2023/09/11 08:27:49;;;;;;;31.17;21.80;;;;;;;20.97;100.00;101162.31;6242462;23;20824;-81
2023/09/11 08:30:14;;;;;;;35.88;21.67;;;;;;;21.02;100.00;101161.78;6248989;23;20030;-78
2023/09/11 08:32:40;;;;;;;29.75;20.85;;;;;;;21.05;100.00;101169.63;6241637;23;20004;-80
2023/09/11 08:35:05;;;;;;;35.00;23.65;;;;;;;21.09;100.00;101158.19;6214245;23;20000;-80
2023/09/11 08:37:31;;;;;;;29.50;19.60;;;;;;;21.11;100.00;101166.19;6241036;23;20049;-80
2023/09/11 08:39:56;;;;;;;36.47;21.20;;;;;;;21.20;100.00;101156.09;6251691;23;20216;-76
2023/09/11 08:42:24;;;;;;;30.30;21.02;;;;;;;21.20;100.00;101156.97;6259151;23;20004;-75
2023/09/11 08:44:50;;;;;;;26.10;17.60;;;;;;;21.22;100.00;101168.56;6259058;23;20008;-76
2023/09/11 08:47:18;;;;;;;29.63;20.23;;;;;;;21.28;100.00;101173.31;6263230;22;20050;-77
2023/09/11 08:49:49;;;;;;;29.73;19.00;;;;;;;21.34;100.00;101170.94;6257094;23;20015;-76
2023/09/11 08:52:16;;;;;;;33.90;23.98;;;;;;;21.43;100.00;101169.88;6260775;22;20481;-76
2023/09/11 08:54:43;;;;;;;36.22;23.55;;;;;;;21.52;100.00;101157.91;6265428;23;20008;-79
2023/09/11 08:57:15;;;;;;;32.10;22.63;;;;;;;21.59;100.00;101164.38;6222725;23;20365;-75
2023/09/11 08:59:43;;;;;;;31.67;23.08;;;;;;;21.62;100.00;101160.44;6249204;23;20004;-76
2023/09/11 09:02:11;;;;;;;30.27;22.42;;;;;;;21.67;100.00;101168.09;6218567;23;20028;-78
2023/09/11 09:04:38;;;;;;;27.08;17.48;;;;;;;21.65;100.00;101173.75;6214162;23;20091;-74
2023/09/11 09:07:06;;;;;;;23.67;13.60;;;;;;;21.66;100.00;101166.41;6251145;23;20023;-76
2023/09/11 09:09:32;;;;;;;30.75;21.73;;;;;;;21.75;100.00;101170.81;6251032;23;20011;-76
2023/09/11 09:11:58;;;;;;;23.98;13.35;;;;;;;21.72;100.00;101162.97;6226018;23;20000;-76
2023/09/11 09:14:27;;;;;;;24.27;13.52;;;;;;;21.77;100.00;101166.00;6222892;23;20015;-74
2023/09/11 09:16:52;;;;;;;;;;;;;;;21.83;100.00;101170.75;6249611;23;20030;-74
2023/09/11 09:19:18;;;;;;;30.10;19.55;;;;;;;21.88;100.00;101162.88;6251107;23;19907;-74
2023/09/11 09:22:02;;;;;;;30.95;20.38;;;;;;;21.95;100.00;101172.06;6249972;23;20010;-75
2023/09/11 09:24:27;;;;;;;29.00;17.90;;;;;;;22.03;100.00;101167.56;6205098;23;1052663;-75
2023/09/11 09:26:57;;;;;;;26.92;16.15;;;;;;;22.07;100.00;101175.25;6223367;23;20403;-75
2023/09/11 09:29:23;;;;;;;31.58;20.40;;;;;;;22.17;100.00;101173.13;6224173;23;20030;-74
2023/09/11 09:31:48;;;;;;;28.15;19.67;;;;;;;22.23;100.00;101168.81;6225851;23;20042;-75
2023/09/11 09:34:14;;;;;;;21.88;10.50;;;;;;;22.21;100.00;101165.38;6225977;23;20082;-74
2023/09/11 09:36:53;;;;;;;27.25;16.67;;;;;;;22.25;100.00;101174.09;6255963;23;20004;-74
2023/09/11 09:39:18;;;;;;;33.08;20.50;;;;;;;22.27;100.00;101164.69;6259126;23;20080;-74
2023/09/11 09:41:53;;;;;;;23.98;13.65;;;;;;;22.26;100.00;101170.34;6256911;23;20039;-75
2023/09/11 09:44:33;;;;;;;27.70;16.55;;;;;;;22.28;100.00;101171.00;6251378;23;20007;-73
2023/09/11 09:47:09;;;;;;;21.85;11.90;;;;;;;22.28;100.00;101171.84;6243328;23;20008;-71
2023/09/11 09:49:51;;;;;;;23.27;13.15;;;;;;;22.29;100.00;101170.81;6243829;23;20011;-74
2023/09/11 09:52:18;;;;;;;26.50;14.55;;;;;;;22.42;100.00;101169.41;6243263;23;20008;-72
2023/09/11 09:54:50;;;;;;;24.83;14.13;;;;;;;22.50;100.00;101174.81;6242429;23;20003;-73
2023/09/11 09:57:19;;;;;;;22.98;12.68;;;;;;;22.55;98.90;101166.91;6216158;23;20004;-73
2023/09/11 09:59:50;;;;;;;20.35;9.55;;;;;;;22.55;100.00;101166.03;6215590;23;20437;-74
2023/09/11 10:02:22;;;;;;;20.63;9.55;;;;;;;22.58;100.00;101172.00;6237716;23;20395;-73
2023/09/11 10:04:51;;;;;;;22.90;11.10;;;;;;;22.60;100.00;101169.09;6206790;23;20444;-73
2023/09/11 10:07:36;;;;;;;25.70;15.30;;;;;;;22.69;99.37;101167.97;6215082;23;20012;-72
2023/09/11 10:10:18;;;;;;;24.40;12.90;;;;;;;22.76;99.25;101170.81;6242390;23;20039;-72
2023/09/11 10:12:43;;;;;;;21.83;11.40;;;;;;;22.78;98.05;101164.13;6243662;23;20083;-72
2023/09/11 10:15:08;;;;;;;21.73;11.32;;;;;;;22.80;98.10;101174.91;6243344;23;20425;-72
2023/09/11 10:17:35;;;;;;;24.35;12.80;;;;;;;22.91;97.39;101176.34;6216372;23;20071;-72
2023/09/11 10:20:02;;;;;;;24.95;13.10;;;;;;;22.92;95.87;101167.94;6215551;23;20066;-73
2023/09/11 10:22:28;;;;;;;26.30;13.88;;;;;;;23.10;93.54;101161.25;6242561;23;20457;-71
2023/09/11 10:24:54;;;;;;;23.48;9.88;;;;;;;23.13;96.01;101160.91;6242155;23;20008;-74
2023/09/11 10:27:19;;;;;;;22.15;10.40;;;;;;;23.14;96.95;101165.34;6215541;23;20012;-73
2023/09/11 10:30:02;;;;;;;20.77;10.07;;;;;;;23.09;98.47;101154.91;6215316;23;20012;-73
2023/09/11 10:32:37;;;;;;;20.27;8.77;;;;;;;23.08;95.87;101152.38;6244520;23;20000;-73
2023/09/11 10:35:04;;;;;;;20.92;10.20;;;;;;;23.13;94.34;101158.16;6244422;23;20085;-72
2023/09/11 10:37:31;;;;;;;22.33;10.75;;;;;;;23.16;92.89;101157.78;6217424;23;20027;-72
2023/09/11 10:39:59;;;;;;;24.63;12.15;;;;;;;23.24;92.42;101160.44;6216750;23;20449;-73
2023/09/11 10:42:24;;;;;;;19.83;8.88;;;;;;;23.22;95.21;101157.00;6242738;23;20086;-73
2023/09/11 10:44:53;;;;;;;24.88;11.65;;;;;;;23.31;92.24;101164.13;6241840;23;20000;-73
2023/09/11 10:47:19;;;;;;;22.65;11.20;;;;;;;23.34;92.21;101155.53;6242157;23;20004;-72
2023/09/11 10:49:49;;;;;;;25.58;12.80;;;;;;;23.46;89.76;101152.31;6217186;23;20517;-72
2023/09/11 10:52:15;;;;;;;;;;;;;;;23.44;96.60;101157.13;6218063;23;20090;-74
2023/09/11 10:54:40;;;;;;;20.00;9.88;;;;;;;23.42;94.13;101145.50;6217703;23;19965;-73
2023/09/11 10:57:06;;;;;;;18.98;8.45;;;;;;;23.36;94.53;101145.19;6244274;23;20008;-72
2023/09/11 10:59:32;;;;;;;21.77;10.93;;;;;;;23.36;96.16;101142.44;6246458;23;20004;-74